sensor_id;sensor_type;location;lat;lon;timestamp;pressure;altitude;pressure_sealevel;temperature;humidity
22335;BME280;11335;43.848;25.958;2022-07-22T00:01:27;100933.91;;;25.20;100.00
22335;BME280;11335;43.848;25.958;2022-07-22T00:04:13;100933.69;;;25.23;100.00
22335;BME280;11335;43.848;25.958;2022-07-22T00:06:59;100936.00;;;25.04;100.00
22335;BME280;11335;43.848;25.958;2022-07-22T00:09:45;100934.53;;;25.23;100.00
22335;BME280;11335;43.848;25.958;2022-07-22T00:12:30;100934.16;;;25.04;100.00
22335;BME280;11335;43.848;25.958;2022-07-22T00:15:16;100932.75;;;25.11;100.00
22335;BME280;11335;43.848;25.958;2022-07-22T00:18:02;100928.00;;;24.91;100.00
22335;BME280;11335;43.848;25.958;2022-07-22T00:20:48;100927.69;;;24.83;100.00
22335;BME280;11335;43.848;25.958;2022-07-22T00:23:34;100930.44;;;25.07;100.00
22335;BME280;11335;43.848;25.958;2022-07-22T00:26:20;100930.66;;;25.04;100.00
22335;BME280;11335;43.848;25.958;2022-07-22T00:29:06;100930.25;;;24.97;100.00
22335;BME280;11335;43.848;25.958;2022-07-22T00:31:52;100933.63;;;25.12;100.00
22335;BME280;11335;43.848;25.958;2022-07-22T00:34:37;100937.13;;;24.89;100.00
22335;BME280;11335;43.848;25.958;2022-07-22T00:37:23;100931.09;;;24.98;100.00
22335;BME280;11335;43.848;25.958;2022-07-22T00:40:09;100933.59;;;24.88;100.00
22335;BME280;11335;43.848;25.958;2022-07-22T00:42:55;100930.47;;;24.94;100.00
22335;BME280;11335;43.848;25.958;2022-07-22T00:45:41;100935.78;;;25.07;100.00
22335;BME280;11335;43.848;25.958;2022-07-22T00:48:27;100939.09;;;24.87;100.00
22335;BME280;11335;43.848;25.958;2022-07-22T00:51:13;100944.44;;;24.87;100.00
22335;BME280;11335;43.848;25.958;2022-07-22T00:54:00;100941.47;;;24.66;100.00
22335;BME280;11335;43.848;25.958;2022-07-22T00:56:47;100936.41;;;24.87;100.00
22335;BME280;11335;43.848;25.958;2022-07-22T00:59:33;100936.50;;;24.85;100.00
22335;BME280;11335;43.848;25.958;2022-07-22T01:02:19;100939.81;;;24.89;100.00
22335;BME280;11335;43.848;25.958;2022-07-22T01:05:05;100942.53;;;24.76;100.00
22335;BME280;11335;43.848;25.958;2022-07-22T01:07:51;100945.28;;;24.87;100.00
22335;BME280;11335;43.848;25.958;2022-07-22T01:10:37;100947.47;;;24.57;100.00
22335;BME280;11335;43.848;25.958;2022-07-22T01:13:23;100950.69;;;24.75;100.00
22335;BME280;11335;43.848;25.958;2022-07-22T01:16:10;100955.06;;;24.76;100.00
22335;BME280;11335;43.848;25.958;2022-07-22T01:18:56;100955.97;;;25.00;100.00
22335;BME280;11335;43.848;25.958;2022-07-22T01:21:42;100958.69;;;24.87;100.00
22335;BME280;11335;43.848;25.958;2022-07-22T01:24:28;100966.91;;;24.97;100.00
22335;BME280;11335;43.848;25.958;2022-07-22T01:27:14;100964.72;;;24.66;100.00
22335;BME280;11335;43.848;25.958;2022-07-22T01:30:00;100960.72;;;24.96;100.00
22335;BME280;11335;43.848;25.958;2022-07-22T01:32:45;100965.34;;;24.82;100.00
22335;BME280;11335;43.848;25.958;2022-07-22T01:35:31;100965.16;;;24.60;100.00
22335;BME280;11335;43.848;25.958;2022-07-22T01:38:17;100969.44;;;24.25;100.00
22335;BME280;11335;43.848;25.958;2022-07-22T01:41:04;100969.66;;;24.34;100.00
22335;BME280;11335;43.848;25.958;2022-07-22T01:43:50;100979.53;;;24.59;100.00
22335;BME280;11335;43.848;25.958;2022-07-22T01:46:36;100977.59;;;24.23;100.00
22335;BME280;11335;43.848;25.958;2022-07-22T01:49:22;100986.25;;;24.39;100.00
22335;BME280;11335;43.848;25.958;2022-07-22T01:52:07;100980.69;;;24.42;100.00
22335;BME280;11335;43.848;25.958;2022-07-22T01:54:53;100984.13;;;24.32;100.00
22335;BME280;11335;43.848;25.958;2022-07-22T01:57:39;100976.50;;;23.62;100.00
22335;BME280;11335;43.848;25.958;2022-07-22T02:00:25;100975.91;;;23.83;100.00
22335;BME280;11335;43.848;25.958;2022-07-22T02:03:11;100989.56;;;24.05;100.00
22335;BME280;11335;43.848;25.958;2022-07-22T02:05:57;100980.91;;;23.36;100.00
22335;BME280;11335;43.848;25.958;2022-07-22T02:08:43;100977.25;;;23.64;100.00
22335;BME280;11335;43.848;25.958;2022-07-22T02:11:28;100975.25;;;23.80;100.00
22335;BME280;11335;43.848;25.958;2022-07-22T02:14:14;100979.56;;;23.56;100.00
22335;BME280;11335;43.848;25.958;2022-07-22T02:17:00;100975.41;;;23.52;100.00
22335;BME280;11335;43.848;25.958;2022-07-22T02:19:46;100979.88;;;23.90;100.00
22335;BME280;11335;43.848;25.958;2022-07-22T02:22:32;100983.53;;;23.23;100.00
22335;BME280;11335;43.848;25.958;2022-07-22T02:25:17;100986.13;;;22.97;100.00
22335;BME280;11335;43.848;25.958;2022-07-22T02:28:04;100972.19;;;23.20;100.00
22335;BME280;11335;43.848;25.958;2022-07-22T02:30:50;100981.56;;;23.39;100.00
22335;BME280;11335;43.848;25.958;2022-07-22T02:33:35;100977.72;;;23.43;100.00
22335;BME280;11335;43.848;25.958;2022-07-22T02:36:21;100983.94;;;23.44;100.00
22335;BME280;11335;43.848;25.958;2022-07-22T02:39:07;100975.00;;;23.58;100.00
22335;BME280;11335;43.848;25.958;2022-07-22T02:41:53;100973.34;;;23.42;100.00
22335;BME280;11335;43.848;25.958;2022-07-22T02:44:38;100969.50;;;23.20;100.00
22335;BME280;11335;43.848;25.958;2022-07-22T02:47:24;100978.66;;;23.16;100.00
22335;BME280;11335;43.848;25.958;2022-07-22T02:50:10;100973.19;;;23.31;100.00
22335;BME280;11335;43.848;25.958;2022-07-22T02:52:56;100975.38;;;23.39;100.00
22335;BME280;11335;43.848;25.958;2022-07-22T02:55:42;100971.88;;;23.51;100.00
22335;BME280;11335;43.848;25.958;2022-07-22T02:58:28;100966.13;;;23.16;100.00
22335;BME280;11335;43.848;25.958;2022-07-22T03:01:13;100967.63;;;23.34;100.00
22335;BME280;11335;43.848;25.958;2022-07-22T03:03:59;100973.94;;;23.33;100.00
22335;BME280;11335;43.848;25.958;2022-07-22T03:06:45;100975.41;;;23.52;100.00
22335;BME280;11335;43.848;25.958;2022-07-22T03:09:31;100976.81;;;23.57;100.00
22335;BME280;11335;43.848;25.958;2022-07-22T03:12:17;100977.22;;;23.24;100.00
22335;BME280;11335;43.848;25.958;2022-07-22T03:15:03;100978.53;;;23.31;100.00
22335;BME280;11335;43.848;25.958;2022-07-22T03:17:49;100976.81;;;23.30;100.00
22335;BME280;11335;43.848;25.958;2022-07-22T03:20:35;100974.25;;;23.29;100.00
22335;BME280;11335;43.848;25.958;2022-07-22T03:23:21;100983.28;;;23.67;100.00
22335;BME280;11335;43.848;25.958;2022-07-22T03:26:07;100989.84;;;23.49;100.00
22335;BME280;11335;43.848;25.958;2022-07-22T03:28:52;100985.59;;;23.59;100.00
22335;BME280;11335;43.848;25.958;2022-07-22T03:31:38;100986.50;;;23.72;100.00
22335;BME280;11335;43.848;25.958;2022-07-22T03:34:24;100999.97;;;23.71;100.00
22335;BME280;11335;43.848;25.958;2022-07-22T03:37:10;100996.88;;;23.77;100.00
22335;BME280;11335;43.848;25.958;2022-07-22T03:39:56;101006.72;;;24.03;100.00
22335;BME280;11335;43.848;25.958;2022-07-22T03:42:42;101002.19;;;24.03;100.00
22335;BME280;11335;43.848;25.958;2022-07-22T03:45:28;101007.03;;;24.11;100.00
22335;BME280;11335;43.848;25.958;2022-07-22T03:48:14;101008.75;;;24.12;100.00
22335;BME280;11335;43.848;25.958;2022-07-22T03:51:00;101010.47;;;24.13;100.00
22335;BME280;11335;43.848;25.958;2022-07-22T03:53:45;101002.94;;;23.93;100.00
22335;BME280;11335;43.848;25.958;2022-07-22T03:56:31;101008.13;;;24.33;100.00
22335;BME280;11335;43.848;25.958;2022-07-22T03:59:17;101014.31;;;24.09;100.00
22335;BME280;11335;43.848;25.958;2022-07-22T04:02:03;101016.25;;;24.07;100.00
22335;BME280;11335;43.848;25.958;2022-07-22T04:04:49;101019.91;;;24.06;100.00
22335;BME280;11335;43.848;25.958;2022-07-22T04:07:35;101019.25;;;24.27;100.00
22335;BME280;11335;43.848;25.958;2022-07-22T04:10:21;101019.47;;;24.12;100.00
22335;BME280;11335;43.848;25.958;2022-07-22T04:13:07;101025.13;;;23.42;100.00
22335;BME280;11335;43.848;25.958;2022-07-22T04:15:53;101021.63;;;23.54;100.00
22335;BME280;11335;43.848;25.958;2022-07-22T04:18:38;101029.09;;;23.48;100.00
22335;BME280;11335;43.848;25.958;2022-07-22T04:21:24;101022.56;;;23.52;100.00
22335;BME280;11335;43.848;25.958;2022-07-22T04:24:10;101021.94;;;23.49;100.00
22335;BME280;11335;43.848;25.958;2022-07-22T04:26:56;101018.41;;;23.88;100.00
22335;BME280;11335;43.848;25.958;2022-07-22T04:29:41;101022.56;;;23.79;100.00
22335;BME280;11335;43.848;25.958;2022-07-22T04:32:27;101026.44;;;23.88;100.00
22335;BME280;11335;43.848;25.958;2022-07-22T04:35:13;101020.72;;;23.67;100.00
22335;BME280;11335;43.848;25.958;2022-07-22T04:37:59;101023.97;;;23.85;100.00
22335;BME280;11335;43.848;25.958;2022-07-22T04:40:45;101024.84;;;23.85;100.00
22335;BME280;11335;43.848;25.958;2022-07-22T04:43:31;101032.13;;;24.10;100.00
22335;BME280;11335;43.848;25.958;2022-07-22T04:46:16;101034.47;;;24.14;100.00
22335;BME280;11335;43.848;25.958;2022-07-22T04:49:02;101041.16;;;24.34;100.00
22335;BME280;11335;43.848;25.958;2022-07-22T04:51:48;101044.34;;;24.14;100.00
22335;BME280;11335;43.848;25.958;2022-07-22T04:54:35;101041.13;;;24.46;100.00
22335;BME280;11335;43.848;25.958;2022-07-22T04:57:21;101050.94;;;24.72;100.00
22335;BME280;11335;43.848;25.958;2022-07-22T05:00:07;101041.34;;;24.56;100.00
22335;BME280;11335;43.848;25.958;2022-07-22T05:02:53;101051.47;;;24.77;100.00
22335;BME280;11335;43.848;25.958;2022-07-22T05:05:39;101046.69;;;25.06;100.00
22335;BME280;11335;43.848;25.958;2022-07-22T05:08:25;101046.97;;;25.14;100.00
22335;BME280;11335;43.848;25.958;2022-07-22T05:11:11;101044.94;;;25.30;100.00
22335;BME280;11335;43.848;25.958;2022-07-22T05:13:57;101047.50;;;25.31;100.00
22335;BME280;11335;43.848;25.958;2022-07-22T05:16:43;101061.78;;;25.32;100.00
22335;BME280;11335;43.848;25.958;2022-07-22T05:19:29;101058.63;;;25.50;100.00
22335;BME280;11335;43.848;25.958;2022-07-22T05:22:15;101065.19;;;25.46;100.00
22335;BME280;11335;43.848;25.958;2022-07-22T05:25:01;101064.16;;;25.60;100.00
22335;BME280;11335;43.848;25.958;2022-07-22T05:27:51;101064.38;;;25.80;100.00
22335;BME280;11335;43.848;25.958;2022-07-22T05:30:38;101069.13;;;26.00;100.00
22335;BME280;11335;43.848;25.958;2022-07-22T05:33:24;101071.09;;;25.98;100.00
22335;BME280;11335;43.848;25.958;2022-07-22T05:36:09;101069.81;;;26.15;99.52
22335;BME280;11335;43.848;25.958;2022-07-22T05:38:56;101077.09;;;26.36;97.64
22335;BME280;11335;43.848;25.958;2022-07-22T05:41:41;101073.56;;;26.47;93.13
22335;BME280;11335;43.848;25.958;2022-07-22T05:44:27;101066.84;;;26.52;94.40
22335;BME280;11335;43.848;25.958;2022-07-22T05:47:13;101079.94;;;26.57;86.42
22335;BME280;11335;43.848;25.958;2022-07-22T05:49:59;101077.56;;;26.76;84.99
22335;BME280;11335;43.848;25.958;2022-07-22T05:52:44;101081.22;;;26.64;85.63
22335;BME280;11335;43.848;25.958;2022-07-22T05:55:30;101078.91;;;26.70;84.66
22335;BME280;11335;43.848;25.958;2022-07-22T05:58:16;101085.03;;;27.05;82.02
22335;BME280;11335;43.848;25.958;2022-07-22T06:01:02;101076.34;;;27.02;84.51
22335;BME280;11335;43.848;25.958;2022-07-22T06:03:48;101075.53;;;27.23;77.97
22335;BME280;11335;43.848;25.958;2022-07-22T06:06:34;101078.75;;;27.60;76.03
22335;BME280;11335;43.848;25.958;2022-07-22T06:09:20;101076.34;;;27.46;75.50
22335;BME280;11335;43.848;25.958;2022-07-22T06:12:06;101078.25;;;27.66;66.39
22335;BME280;11335;43.848;25.958;2022-07-22T06:14:52;101074.78;;;27.75;67.81
22335;BME280;11335;43.848;25.958;2022-07-22T06:17:37;101080.84;;;27.68;67.18
22335;BME280;11335;43.848;25.958;2022-07-22T06:20:23;101080.66;;;27.80;61.05
22335;BME280;11335;43.848;25.958;2022-07-22T06:23:09;101076.88;;;27.83;55.88
22335;BME280;11335;43.848;25.958;2022-07-22T06:25:55;101084.34;;;27.90;54.81
22335;BME280;11335;43.848;25.958;2022-07-22T06:28:40;101079.06;;;27.78;53.65
22335;BME280;11335;43.848;25.958;2022-07-22T06:31:26;101081.84;;;27.98;52.43
22335;BME280;11335;43.848;25.958;2022-07-22T06:34:12;101080.09;;;28.08;52.30
22335;BME280;11335;43.848;25.958;2022-07-22T06:36:58;101077.47;;;28.18;51.28
22335;BME280;11335;43.848;25.958;2022-07-22T06:39:44;101080.38;;;28.05;50.94
22335;BME280;11335;43.848;25.958;2022-07-22T06:42:32;101081.19;;;28.06;49.99
22335;BME280;11335;43.848;25.958;2022-07-22T06:45:18;101088.66;;;28.45;49.33
22335;BME280;11335;43.848;25.958;2022-07-22T06:48:03;101096.13;;;28.62;48.14
22335;BME280;11335;43.848;25.958;2022-07-22T06:50:49;101085.53;;;28.49;47.92
22335;BME280;11335;43.848;25.958;2022-07-22T06:53:35;101092.38;;;28.53;46.04
22335;BME280;11335;43.848;25.958;2022-07-22T06:56:21;101090.63;;;28.93;46.92
22335;BME280;11335;43.848;25.958;2022-07-22T06:59:07;101101.09;;;29.07;46.82
22335;BME280;11335;43.848;25.958;2022-07-22T07:01:53;101094.44;;;29.11;47.35
22335;BME280;11335;43.848;25.958;2022-07-22T07:04:39;101095.69;;;29.47;46.81
22335;BME280;11335;43.848;25.958;2022-07-22T07:07:24;101107.25;;;29.19;45.77
22335;BME280;11335;43.848;25.958;2022-07-22T07:10:10;101103.38;;;29.12;44.06
22335;BME280;11335;43.848;25.958;2022-07-22T07:12:58;101107.50;;;29.06;44.27
22335;BME280;11335;43.848;25.958;2022-07-22T07:15:44;101113.19;;;28.92;43.90
22335;BME280;11335;43.848;25.958;2022-07-22T07:18:30;101111.81;;;28.98;43.54
22335;BME280;11335;43.848;25.958;2022-07-22T07:21:16;101111.34;;;29.13;43.06
22335;BME280;11335;43.848;25.958;2022-07-22T07:24:02;101114.09;;;29.23;42.97
22335;BME280;11335;43.848;25.958;2022-07-22T07:26:48;101110.59;;;29.41;42.29
22335;BME280;11335;43.848;25.958;2022-07-22T07:29:33;101123.66;;;29.36;41.79
22335;BME280;11335;43.848;25.958;2022-07-22T07:32:19;101120.84;;;29.38;41.80
22335;BME280;11335;43.848;25.958;2022-07-22T07:35:06;101124.44;;;29.97;41.42
22335;BME280;11335;43.848;25.958;2022-07-22T07:37:53;101117.50;;;30.23;40.21
22335;BME280;11335;43.848;25.958;2022-07-22T07:40:39;101116.50;;;30.24;39.47
22335;BME280;11335;43.848;25.958;2022-07-22T07:43:24;101116.91;;;30.48;39.29
22335;BME280;11335;43.848;25.958;2022-07-22T07:46:10;101117.75;;;30.58;37.71
22335;BME280;11335;43.848;25.958;2022-07-22T07:48:56;101118.50;;;30.31;38.61
22335;BME280;11335;43.848;25.958;2022-07-22T07:51:42;101120.47;;;30.67;38.92
22335;BME280;11335;43.848;25.958;2022-07-22T07:54:28;101123.16;;;30.77;38.41
22335;BME280;11335;43.848;25.958;2022-07-22T07:57:14;101118.53;;;31.70;37.83
22335;BME280;11335;43.848;25.958;2022-07-22T08:00:00;101126.06;;;31.49;37.38
22335;BME280;11335;43.848;25.958;2022-07-22T08:02:46;101130.03;;;31.81;37.09
22335;BME280;11335;43.848;25.958;2022-07-22T08:05:32;101127.81;;;32.12;39.24
22335;BME280;11335;43.848;25.958;2022-07-22T08:08:18;101121.22;;;32.14;38.00
22335;BME280;11335;43.848;25.958;2022-07-22T08:11:04;101134.81;;;32.49;36.59
22335;BME280;11335;43.848;25.958;2022-07-22T08:13:50;101132.38;;;32.64;35.18
22335;BME280;11335;43.848;25.958;2022-07-22T08:16:36;101131.47;;;32.55;34.22
22335;BME280;11335;43.848;25.958;2022-07-22T08:19:21;101132.31;;;32.99;33.61
22335;BME280;11335;43.848;25.958;2022-07-22T08:22:07;101132.63;;;33.21;34.11
22335;BME280;11335;43.848;25.958;2022-07-22T08:24:53;101138.13;;;33.63;32.46
22335;BME280;11335;43.848;25.958;2022-07-22T08:27:39;101127.38;;;34.03;32.89
22335;BME280;11335;43.848;25.958;2022-07-22T08:30:25;101131.00;;;33.78;33.03
22335;BME280;11335;43.848;25.958;2022-07-22T08:33:13;101131.63;;;33.97;32.50
22335;BME280;11335;43.848;25.958;2022-07-22T08:35:59;101136.69;;;33.84;31.55
22335;BME280;11335;43.848;25.958;2022-07-22T08:38:45;101126.59;;;34.42;31.04
22335;BME280;11335;43.848;25.958;2022-07-22T08:41:35;101132.91;;;34.43;30.85
22335;BME280;11335;43.848;25.958;2022-07-22T08:44:21;101140.66;;;34.22;31.77
22335;BME280;11335;43.848;25.958;2022-07-22T08:47:07;101133.41;;;34.46;30.44
22335;BME280;11335;43.848;25.958;2022-07-22T08:49:53;101135.97;;;34.48;29.48
22335;BME280;11335;43.848;25.958;2022-07-22T08:52:39;101130.59;;;33.98;29.61
22335;BME280;11335;43.848;25.958;2022-07-22T08:55:25;101130.34;;;33.76;31.95
22335;BME280;11335;43.848;25.958;2022-07-22T08:58:11;101140.97;;;33.95;32.40
22335;BME280;11335;43.848;25.958;2022-07-22T09:01:08;101132.22;;;34.49;31.25
22335;BME280;11335;43.848;25.958;2022-07-22T09:03:56;101130.78;;;34.13;31.83
22335;BME280;11335;43.848;25.958;2022-07-22T09:06:47;101138.16;;;34.60;31.99
22335;BME280;11335;43.848;25.958;2022-07-22T09:09:34;101137.16;;;34.61;31.76
22335;BME280;11335;43.848;25.958;2022-07-22T09:12:20;101128.94;;;34.29;31.52
22335;BME280;11335;43.848;25.958;2022-07-22T09:15:08;101133.91;;;34.82;31.35
22335;BME280;11335;43.848;25.958;2022-07-22T09:17:54;101133.06;;;34.33;29.66
22335;BME280;11335;43.848;25.958;2022-07-22T09:20:40;101132.38;;;34.87;29.32
22335;BME280;11335;43.848;25.958;2022-07-22T09:23:26;101123.38;;;34.31;29.88
22335;BME280;11335;43.848;25.958;2022-07-22T09:29:17;101123.19;;;34.56;30.35
22335;BME280;11335;43.848;25.958;2022-07-22T09:32:06;101125.41;;;34.45;29.98
22335;BME280;11335;43.848;25.958;2022-07-22T09:35:01;101130.19;;;34.59;29.62
22335;BME280;11335;43.848;25.958;2022-07-22T09:37:48;101124.91;;;34.33;29.45
22335;BME280;11335;43.848;25.958;2022-07-22T09:40:36;101114.13;;;34.16;30.11
22335;BME280;11335;43.848;25.958;2022-07-22T09:43:22;101120.75;;;33.97;30.39
22335;BME280;11335;43.848;25.958;2022-07-22T09:46:08;101127.97;;;34.62;29.81
22335;BME280;11335;43.848;25.958;2022-07-22T09:48:55;101113.59;;;34.12;29.30
22335;BME280;11335;43.848;25.958;2022-07-22T09:51:41;101122.44;;;33.98;29.91
22335;BME280;11335;43.848;25.958;2022-07-22T09:54:29;101125.34;;;34.21;30.32
22335;BME280;11335;43.848;25.958;2022-07-22T09:57:15;101129.66;;;34.39;29.16
22335;BME280;11335;43.848;25.958;2022-07-22T10:00:00;101117.53;;;34.26;29.87
22335;BME280;11335;43.848;25.958;2022-07-22T10:05:38;101121.78;;;33.55;29.10
22335;BME280;11335;43.848;25.958;2022-07-22T10:08:28;101124.53;;;33.63;29.01
22335;BME280;11335;43.848;25.958;2022-07-22T10:11:15;101124.22;;;34.39;29.18
22335;BME280;11335;43.848;25.958;2022-07-22T10:14:01;101128.38;;;33.94;28.37
22335;BME280;11335;43.848;25.958;2022-07-22T10:16:48;101118.72;;;34.07;28.80
22335;BME280;11335;43.848;25.958;2022-07-22T10:19:34;101123.09;;;34.00;29.29
22335;BME280;11335;43.848;25.958;2022-07-22T10:25:30;101115.28;;;33.89;29.94
22335;BME280;11335;43.848;25.958;2022-07-22T10:28:26;101117.06;;;34.38;30.20
22335;BME280;11335;43.848;25.958;2022-07-22T10:31:22;101117.00;;;33.98;30.31
22335;BME280;11335;43.848;25.958;2022-07-22T10:34:09;101107.66;;;34.09;30.13
22335;BME280;11335;43.848;25.958;2022-07-22T10:36:55;101111.75;;;34.05;30.06
22335;BME280;11335;43.848;25.958;2022-07-22T10:43:15;101102.50;;;33.82;31.35
22335;BME280;11335;43.848;25.958;2022-07-22T10:46:02;101104.16;;;33.67;30.94
22335;BME280;11335;43.848;25.958;2022-07-22T10:48:52;101102.34;;;33.42;31.03
22335;BME280;11335;43.848;25.958;2022-07-22T10:51:37;101098.47;;;34.02;30.43
22335;BME280;11335;43.848;25.958;2022-07-22T10:54:23;101103.94;;;34.26;31.29
22335;BME280;11335;43.848;25.958;2022-07-22T10:57:09;101103.09;;;33.60;30.62
22335;BME280;11335;43.848;25.958;2022-07-22T10:59:56;101093.63;;;33.72;31.24
22335;BME280;11335;43.848;25.958;2022-07-22T11:02:42;101097.84;;;34.64;30.36
22335;BME280;11335;43.848;25.958;2022-07-22T11:05:28;101083.38;;;34.63;30.45
22335;BME280;11335;43.848;25.958;2022-07-22T11:08:17;101086.97;;;34.32;30.57
22335;BME280;11335;43.848;25.958;2022-07-22T11:11:04;101083.22;;;34.33;30.79
22335;BME280;11335;43.848;25.958;2022-07-22T11:13:50;101090.66;;;34.79;30.59
22335;BME280;11335;43.848;25.958;2022-07-22T11:16:36;101090.72;;;34.39;31.11
22335;BME280;11335;43.848;25.958;2022-07-22T11:19:24;101085.69;;;35.06;30.26
22335;BME280;11335;43.848;25.958;2022-07-22T11:22:12;101087.75;;;34.72;30.03
22335;BME280;11335;43.848;25.958;2022-07-22T11:25:09;101084.06;;;34.49;30.40
22335;BME280;11335;43.848;25.958;2022-07-22T11:27:55;101077.53;;;35.06;30.11
22335;BME280;11335;43.848;25.958;2022-07-22T11:30:43;101076.06;;;34.48;29.99
22335;BME280;11335;43.848;25.958;2022-07-22T11:33:29;101079.78;;;34.71;30.07
22335;BME280;11335;43.848;25.958;2022-07-22T11:36:15;101072.25;;;34.97;29.97
22335;BME280;11335;43.848;25.958;2022-07-22T11:39:02;101078.91;;;35.02;30.06
22335;BME280;11335;43.848;25.958;2022-07-22T11:41:49;101074.72;;;35.31;29.42
22335;BME280;11335;43.848;25.958;2022-07-22T11:44:37;101069.19;;;35.00;29.70
22335;BME280;11335;43.848;25.958;2022-07-22T11:47:23;101068.50;;;34.98;30.01
22335;BME280;11335;43.848;25.958;2022-07-22T11:50:09;101066.69;;;34.66;30.08
22335;BME280;11335;43.848;25.958;2022-07-22T11:52:55;101063.44;;;34.87;30.05
22335;BME280;11335;43.848;25.958;2022-07-22T11:55:41;101056.22;;;35.10;29.68
22335;BME280;11335;43.848;25.958;2022-07-22T12:01:21;101052.06;;;35.91;29.17
22335;BME280;11335;43.848;25.958;2022-07-22T12:04:07;101054.03;;;35.83;28.89
22335;BME280;11335;43.848;25.958;2022-07-22T12:06:54;101046.59;;;36.36;28.63
22335;BME280;11335;43.848;25.958;2022-07-22T12:09:40;101038.38;;;35.77;28.70
22335;BME280;11335;43.848;25.958;2022-07-22T12:12:41;101054.16;;;35.59;29.07
22335;BME280;11335;43.848;25.958;2022-07-22T12:15:27;101056.63;;;36.21;28.51
22335;BME280;11335;43.848;25.958;2022-07-22T12:18:19;101043.59;;;36.31;27.80
22335;BME280;11335;43.848;25.958;2022-07-22T12:21:06;101036.63;;;36.43;27.91
22335;BME280;11335;43.848;25.958;2022-07-22T12:23:55;101040.53;;;36.63;27.65
22335;BME280;11335;43.848;25.958;2022-07-22T12:26:47;101034.81;;;35.99;28.11
22335;BME280;11335;43.848;25.958;2022-07-22T12:35:07;101016.19;;;36.02;27.97
22335;BME280;11335;43.848;25.958;2022-07-22T12:37:53;101019.41;;;35.14;28.74
22335;BME280;11335;43.848;25.958;2022-07-22T12:40:39;101012.84;;;35.39;29.05
22335;BME280;11335;43.848;25.958;2022-07-22T12:43:26;101004.34;;;35.26;29.03
22335;BME280;11335;43.848;25.958;2022-07-22T12:46:12;101001.56;;;35.95;28.78
22335;BME280;11335;43.848;25.958;2022-07-22T12:48:58;101002.28;;;36.49;27.97
22335;BME280;11335;43.848;25.958;2022-07-22T12:52:24;100999.84;;;36.17;27.03
22335;BME280;11335;43.848;25.958;2022-07-22T12:55:10;100997.41;;;36.22;27.46
22335;BME280;11335;43.848;25.958;2022-07-22T12:57:56;100995.81;;;35.90;27.75
22335;BME280;11335;43.848;25.958;2022-07-22T13:00:45;101001.59;;;36.32;27.27
22335;BME280;11335;43.848;25.958;2022-07-22T13:03:32;100991.66;;;36.17;27.32
22335;BME280;11335;43.848;25.958;2022-07-22T13:06:18;100987.31;;;36.08;26.72
22335;BME280;11335;43.848;25.958;2022-07-22T13:09:04;100985.44;;;36.31;27.18
22335;BME280;11335;43.848;25.958;2022-07-22T13:11:49;100989.09;;;36.15;27.41
22335;BME280;11335;43.848;25.958;2022-07-22T13:14:35;100993.31;;;36.26;26.68
22335;BME280;11335;43.848;25.958;2022-07-22T13:17:21;100981.69;;;35.64;28.53
22335;BME280;11335;43.848;25.958;2022-07-22T13:20:08;100986.84;;;36.27;27.52
22335;BME280;11335;43.848;25.958;2022-07-22T13:22:54;100989.69;;;36.11;27.22
22335;BME280;11335;43.848;25.958;2022-07-22T13:25:40;100980.78;;;35.94;27.17
22335;BME280;11335;43.848;25.958;2022-07-22T13:28:26;100981.25;;;35.98;27.69
22335;BME280;11335;43.848;25.958;2022-07-22T13:31:12;100987.13;;;36.46;27.65
22335;BME280;11335;43.848;25.958;2022-07-22T13:33:57;100985.84;;;36.86;27.08
22335;BME280;11335;43.848;25.958;2022-07-22T13:36:43;100991.03;;;36.81;26.63
22335;BME280;11335;43.848;25.958;2022-07-22T13:39:29;100981.00;;;36.59;26.47
22335;BME280;11335;43.848;25.958;2022-07-22T13:42:15;100980.25;;;35.99;26.29
22335;BME280;11335;43.848;25.958;2022-07-22T13:45:05;100973.38;;;36.25;26.73
22335;BME280;11335;43.848;25.958;2022-07-22T13:47:51;100969.47;;;36.20;26.87
22335;BME280;11335;43.848;25.958;2022-07-22T13:50:37;100969.22;;;36.29;26.81
22335;BME280;11335;43.848;25.958;2022-07-22T13:53:22;100966.59;;;35.99;27.02
22335;BME280;11335;43.848;25.958;2022-07-22T13:56:09;100972.66;;;35.86;27.02
22335;BME280;11335;43.848;25.958;2022-07-22T13:58:55;100972.34;;;36.41;26.85
22335;BME280;11335;43.848;25.958;2022-07-22T14:01:41;100975.41;;;36.23;27.41
22335;BME280;11335;43.848;25.958;2022-07-22T14:04:27;100976.50;;;36.14;26.40
22335;BME280;11335;43.848;25.958;2022-07-22T14:07:13;100970.69;;;36.17;27.17
22335;BME280;11335;43.848;25.958;2022-07-22T14:09:59;100971.63;;;35.87;26.70
22335;BME280;11335;43.848;25.958;2022-07-22T14:12:45;100968.28;;;36.00;26.63
22335;BME280;11335;43.848;25.958;2022-07-22T14:15:32;100974.50;;;36.08;26.28
22335;BME280;11335;43.848;25.958;2022-07-22T14:18:18;100970.59;;;36.11;26.33
22335;BME280;11335;43.848;25.958;2022-07-22T14:21:03;100959.38;;;36.57;25.98
22335;BME280;11335;43.848;25.958;2022-07-22T14:23:49;100961.97;;;36.36;25.79
22335;BME280;11335;43.848;25.958;2022-07-22T14:26:36;100961.28;;;35.83;26.88
22335;BME280;11335;43.848;25.958;2022-07-22T14:29:22;100972.81;;;36.07;26.34
22335;BME280;11335;43.848;25.958;2022-07-22T14:32:08;100960.75;;;36.02;26.70
22335;BME280;11335;43.848;25.958;2022-07-22T14:34:54;100967.09;;;36.17;26.31